Date,TemperatureHighF,TemperatureAvgF,TemperatureLowF,DewpointHighF,DewpointAvgF,DewpointLowF,HumidityHigh,HumidityAvg,HumidityLow,PressureMaxIn,PressureMinIn,WindSpeedMaxMPH,WindSpeedAvgMPH,GustSpeedMaxMPH,PrecipitationSumIn
2013-1-1,39,36,28,37,34,24,96,92,81,30.21,30.02,10,2,12,0.00
2013-1-2,35,28,24,26,23,20,93,82,58,30.30,30.19,7,1,8,0.00
2013-1-3,43,28,20,100,27,18,93,77,47,30.46,30.26,10,-47,10,0.01
2013-1-4,45,30,20,31,24,18,93,78,48,30.50,30.41,10,1,10,0.00
2013-1-5,46,35,21,33,26,19,93,73,53,30.42,30.25,10,1,11,0.00
2013-1-6,48,38,24,37,31,22,92,79,58,30.42,30.19,15,2,15,0.00
2013-1-7,46,26,20,100,33,18,92,70,50,30.49,30.26,7,-118,7,0.01
2013-1-8,58,38,23,100,34,21,93,72,42,30.34,30.21,10,-46,10,0.00
2013-1-9,56,49,39,51,45,35,97,88,80,30.43,30.25,8,1,9,0.08
2013-1-10,66,37,47,100,69,45,96,59,84,30.41,29.89,18,-339,19,0.39
2013-1-11,69,60,49,62,54,46,96,81,56,30.02,29.86,14,3,18,0.64
2013-1-12,70,68,63,66,64,60,96,88,81,29.98,29.75,15,2,15,0.00
2013-1-13,70,46,30,64,43,26,97,91,80,30.28,29.74,23,3,23,2.21
2013-1-14,31,24,25,100,33,21,88,72,73,30.44,30.28,13,-123,13,0.01
2013-1-15,32,18,25,100,49,22,91,59,83,30.33,30.06,10,-324,11,0.00
2013-1-16,34,18,31,100,61,29,94,51,86,30.17,30.05,5,-438,6,0.01
2013-1-17,48,37,31,37,31,27,93,78,61,30.47,30.12,19,2,23,0.01
2013-1-18,50,35,24,29,26,22,92,74,41,30.59,30.35,7,0,8,0.00
2013-1-19,57,47,36,34,31,28,77,56,35,30.35,30.11,19,3,19,0.00
2013-1-20,51,40,30,37,26,16,94,60,27,30.29,30.15,8,1,9,0.00
2013-1-21,38,30,25,22,17,10,76,57,40,30.35,30.22,14,2,15,0.00
2013-1-22,30,25,19,12,6,3,57,45,32,30.48,30.33,9,2,10,0.00
2013-1-23,51,33,17,100,23,6,93,65,45,30.40,30.15,14,-9,14,0.00
2013-1-24,35,30,25,31,15,7,94,56,37,30.54,30.24,16,4,17,0.00
2013-1-25,36,31,26,34,26,8,95,82,39,30.29,30.10,10,1,10,0.17
2013-1-26,48,34,24,35,28,23,96,82,49,30.38,30.26,8,1,9,0.00
2013-1-27,50,39,27,45,36,24,95,87,72,30.35,30.16,9,1,9,0.02
2013-1-28,62,56,50,56,50,40,92,81,63,30.17,30.07,15,2,16,0.17
2013-1-29,72,65,58,63,60,54,89,83,75,30.07,29.49,22,3,22,0.00
2013-1-30,72,50,34,63,44,23,97,82,64,29.95,29.40,32,5,32,1.90
2013-1-31,44,36,26,34,25,20,91,65,47,30.30,29.94,22,5,24,0.04
2013-2-1,29,23,16,20,12,8,78,63,43,30.55,30.30,15,2,17,0.00
2013-2-2,42,33,22,35,27,17,93,79,54,30.35,30.10,13,2,16,0.04
2013-2-3,45,38,27,34,29,23,93,72,51,30.19,30.02,16,3,19,0.01
2013-2-4,53,42,27,41,31,24,91,69,43,30.13,29.90,14,2,15,0.00
2013-2-5,59,48,35,43,39,32,90,72,41,30.08,29.92,11,2,13,0.00
2013-2-6,56,42,30,36,32,28,96,70,37,30.26,30.08,9,1,9,0.00
2013-2-7,68,50,40,49,39,33,84,67,48,30.11,29.90,11,1,11,0.00
2013-2-8,44,40,35,39,33,28,87,77,68,30.36,30.04,14,4,16,0.03
2013-2-9,53,42,33,32,29,27,81,62,40,30.39,30.10,11,3,13,0.00
2013-2-10,60,54,45,55,45,32,94,75,49,30.10,29.77,22,3,22,0.44
2013-2-11,58,47,34,55,35,28,91,65,37,30.17,29.88,13,3,15,0.00
2013-2-12,51,42,28,36,31,27,96,68,44,30.17,29.84,10,1,11,0.00
2013-2-13,45,40,35,37,36,33,94,86,64,29.99,29.77,11,2,11,0.30
2013-2-14,60,48,36,41,37,33,91,66,42,30.02,29.95,15,3,15,0.00
2013-2-15,51,40,31,38,30,17,94,68,43,30.22,30.01,15,2,17,0.00
2013-2-16,40,30,22,24,18,10,88,62,32,30.24,30.16,16,2,16,0.00
2013-2-17,46,28,18,100,21,15,90,71,36,30.30,30.13,9,-17,9,0.00
2013-2-18,63,50,34,47,36,23,93,63,35,30.13,29.76,24,4,26,0.72
2013-2-19,50,29,30,100,47,20,91,53,41,30.28,29.83,19,-245,19,0.00
2013-2-20,36,22,24,100,36,13,71,46,43,30.39,30.26,8,-236,8,0.00
2013-2-21,40,34,27,38,26,19,95,74,46,30.28,29.84,16,5,17,0.88
2013-2-22,55,44,35,44,39,32,97,84,64,30.06,29.84,15,3,16,0.01
2013-2-23,50,38,30,34,29,26,93,72,41,30.05,29.94,8,1,8,0.00
2013-2-24,53,38,24,30,26,22,93,65,35,30.16,30.00,10,2,11,0.00
2013-2-25,61,50,34,46,32,26,82,53,31,30.03,29.44,24,6,24,0.05
2013-2-26,52,46,40,49,42,34,95,85,69,29.70,29.36,18,4,22,0.45
2013-2-27,40,39,36,34,32,31,88,78,72,29.91,29.71,20,5,21,0.01
2013-2-28,39,36,34,33,30,27,91,79,68,30.08,29.89,14,3,14,0.02
2013-3-1,39,35,32,36,32,31,95,91,81,30.11,30.04,13,2,13,0.04
2013-3-2,34,32,30,31,28,24,95,87,77,30.21,30.07,14,2,16,0.01
2013-3-3,43,34,25,27,21,16,80,60,35,30.21,30.10,10,1,12,0.06
2013-3-4,60,47,35,42,29,21,78,50,34,30.13,29.78,17,3,19,0.03
2013-3-5,51,43,34,50,38,21,97,85,56,30.06,29.73,24,4,28,0.02
2013-3-6,43,37,33,30,27,25,79,69,55,30.34,30.08,21,4,22,0.03
2013-3-7,44,36,30,31,28,25,89,73,57,30.42,30.33,9,2,11,0.01
2013-3-8,54,26,25,100,48,23,93,52,37,30.44,30.27,12,-283,12,0.36
2013-3-9,67,54,41,38,33,30,69,47,26,30.28,29.97,10,2,11,0.09
2013-3-10,72,59,54,100,47,36,96,56,35,29.98,29.73,18,-35,18,0.23
2013-3-11,54,42,39,100,43,31,96,77,66,30.01,29.74,19,-54,19,0.53
2013-3-12,53,42,29,34,30,26,93,64,37,30.16,30.01,13,2,15,0.29
2013-3-13,46,39,28,32,24,19,77,54,40,30.43,30.15,17,4,19,0.06
2013-3-14,48,35,22,38,26,19,95,73,37,30.44,30.18,8,1,9,0.18
2013-3-15,77,56,32,50,42,31,96,65,37,30.18,29.82,15,3,17,0.05
2013-3-16,75,64,50,54,49,42,74,58,46,29.95,29.78,24,5,24,0.01
2013-3-17,50,46,44,44,42,39,93,87,74,29.99,29.73,13,4,13,0.01
2013-3-18,63,49,37,58,46,35,97,88,75,30.01,29.65,17,2,17,0.00
2013-3-19,56,43,31,37,26,13,97,58,20,30.20,30.01,11,1,13,0.00
2013-3-20,51,38,28,33,26,17,88,64,45,30.20,30.07,20,2,20,0.76
2013-3-21,44,34,20,22,17,13,84,52,30,30.12,29.97,12,2,13,0.37
2013-3-22,46,40,35,29,23,20,58,51,42,30.05,29.96,9,3,10,0.04
2013-3-23,58,48,42,45,37,28,94,67,54,30.01,29.72,13,3,15,0.01
2013-3-24,50,43,34,47,40,30,96,90,75,29.77,29.45,24,4,26,0.00
2013-3-25,37,35,34,30,28,26,85,77,68,30.16,29.76,23,7,23,0.00
2013-3-26,42,36,30,32,29,26,94,77,58,30.37,30.16,12,2,13,0.00
2013-3-27,52,38,24,32,27,22,93,68,37,30.43,30.32,10,1,12,0.57
2013-3-28,62,47,34,40,34,28,88,62,34,30.39,30.27,8,1,8,0.00
2013-3-29,52,48,43,47,43,38,95,84,69,30.30,30.19,7,0,7,0.13
2013-3-30,54,48,38,53,45,37,98,92,79,30.21,29.91,12,1,12,0.01
2013-3-31,54,1,54,100,99,53,97,1,97,29.95,29.87,8,-988,8,0.00
2013-4-1,61,26,43,100,69,29,60,24,42,30.18,29.91,13,-518,18,0.00
2013-4-2,48,44,40,31,25,19,70,50,32,30.31,30.17,10,2,10,0.00
2013-4-3,54,47,37,26,22,19,54,39,27,30.33,30.18,17,5,18,0.00
2013-4-4,47,44,40,44,36,24,96,75,41,30.19,30.01,9,1,10,0.00
2013-4-5,69,52,36,48,39,34,98,67,28,30.14,30.03,14,1,14,0.00
2013-4-6,75,58,38,47,39,36,92,55,27,30.12,29.91,14,2,18,0.00
2013-4-7,76,66,60,54,48,41,65,53,41,30.02,29.93,15,2,15,0.00
2013-4-8,78,67,54,58,54,48,83,64,44,29.98,29.87,16,2,16,0.00
2013-4-9,76,25,56,100,82,52,89,34,66,30.05,29.92,10,-590,10,0.00
2013-4-10,-200,0,200,100,100,100,0,0,100,29.99,29.72,0,-999,0,0.00
2013-4-11,61,34,48,100,69,45,97,59,87,29.74,29.58,16,-361,16,0.00
2013-4-12,60,31,36,100,60,35,95,51,48,30.03,29.73,17,-339,17,0.00
2013-4-13,68,52,35,45,37,32,90,61,29,30.12,29.96,7,1,8,0.00
2013-4-14,74,32,44,100,65,41,91,48,36,29.97,29.83,12,-381,11,0.00
2013-4-15,73,4,58,100,97,54,84,4,58,29.94,29.84,6,-940,8,0.00
2013-4-16,77,21,68,100,90,62,85,24,74,30.08,29.93,12,-698,13,0.00
2013-4-17,-200,0,200,100,100,100,0,0,100,30.09,29.88,0,-999,0,0.00
2013-4-18,84,5,80,100,98,64,61,3,51,29.89,29.57,17,-929,17,0.00
2013-4-19,54,44,37,100,37,31,93,73,55,30.12,29.63,18,-11,18,0.10
2013-4-20,63,48,33,42,35,30,95,65,32,30.32,30.12,13,1,13,0.00
2013-4-21,66,52,37,41,35,24,91,57,23,30.41,30.25,14,2,15,0.00
2013-4-22,75,58,41,48,43,38,89,63,32,30.27,30.05,11,1,15,0.00
2013-4-23,77,64,50,59,54,47,91,70,48,30.10,29.90,15,2,15,0.00
2013-4-24,67,50,37,59,45,36,94,83,68,30.30,29.83,15,2,18,0.75
2013-4-25,67,49,32,44,38,30,96,70,34,30.39,30.29,11,1,11,0.00
2013-4-26,54,49,40,50,46,38,95,89,68,30.46,30.26,8,1,11,0.31
2013-4-27,61,55,49,60,54,48,97,96,93,30.34,29.90,11,1,11,3.74
2013-4-28,65,58,49,59,54,48,98,89,68,29.96,29.87,12,1,12,0.01
2013-4-29,77,60,46,58,51,45,98,77,41,30.03,29.89,8,1,9,0.00
2013-4-30,83,66,48,60,53,47,96,70,31,30.00,29.91,9,1,12,0.00
2013-5-1,82,68,53,65,58,52,95,75,44,30.09,29.99,14,1,14,0.00
2013-5-2,78,67,56,62,59,55,96,77,49,30.14,30.01,10,1,11,0.00
2013-5-3,76,64,44,62,55,42,94,76,52,30.03,29.76,19,2,19,0.42
2013-5-4,53,46,42,44,42,40,95,86,69,29.98,29.87,9,1,10,0.54
2013-5-5,63,52,42,52,47,41,96,85,64,29.95,29.82,7,1,8,0.00
2013-5-6,68,42,52,100,66,50,97,66,59,29.92,29.79,8,-265,8,0.26
2013-5-7,-200,0,200,100,100,100,0,0,100,30.00,29.91,0,-999,0,0.00
2013-5-8,-200,0,200,100,100,100,0,0,100,30.05,29.95,0,-999,0,0.00
2013-5-9,81,58,58,100,67,56,95,62,49,30.06,29.93,14,-161,14,0.00
2013-5-10,72,66,63,68,63,61,98,92,81,29.96,29.84,11,1,13,1.15
2013-5-11,68,51,56,100,63,47,97,69,60,30.10,29.92,10,-165,12,0.00
2013-5-12,64,54,42,47,38,29,91,59,29,30.20,30.10,15,2,15,0.00
2013-5-13,71,47,38,100,50,32,96,51,28,30.27,30.13,9,-168,10,0.00
2013-5-14,83,11,56,100,93,51,86,9,47,30.15,29.94,7,-844,7,0.00
2013-5-15,-200,0,200,100,100,100,0,0,100,30.07,29.92,0,-999,0,0.00
2013-5-16,-200,0,200,100,100,100,0,0,100,30.01,29.91,0,-992,0,0.00
2013-5-17,70,6,68,100,97,64,92,8,87,30.02,29.91,9,-913,9,0.00
2013-5-18,-200,0,200,100,100,100,0,0,100,29.99,29.92,0,-999,0,0.00
2013-5-19,70,7,68,100,97,67,97,10,96,29.97,29.88,0,-895,0,0.00
2013-5-20,-200,0,200,100,100,100,0,0,100,30.00,29.86,0,-999,0,0.00
2013-5-21,73,3,68,100,99,64,88,3,79,30.00,29.81,14,-963,15,0.21
2013-5-22,75,10,72,100,96,65,86,10,74,29.86,29.76,12,-869,12,0.02
2013-5-23,75,5,66,100,97,55,70,4,57,30.12,29.85,9,-927,10,0.00
2013-5-24,-200,0,200,100,100,100,0,0,100,30.33,30.12,0,-999,0,0.00
2013-5-25,-200,0,200,100,100,100,0,0,100,30.35,30.15,0,-999,0,0.00
2013-5-26,82,6,79,100,97,58,55,3,45,30.22,30.08,2,-930,3,0.00
2013-5-27,-200,0,200,100,100,100,0,0,100,30.10,29.97,0,-999,0,0.00
2013-5-28,66,1,65,100,99,59,82,2,80,30.06,29.97,0,-977,0,0.00
2013-5-29,78,25,61,100,85,58,93,33,71,30.10,29.96,6,-617,8,0.00
2013-5-30,83,54,74,100,77,66,78,52,67,30.06,30.00,10,-293,10,0.00
2013-12-5,36,34,33,34,32,31,93,92,92,30.18,30.11,11,2,13,0.18
2013-12-6,33,12,26,100,73,24,93,35,91,30.45,30.11,14,-621,14,0.18
2013-12-7,26,5,23,100,85,20,92,17,89,30.62,30.38,10,-812,11,0.00
2013-12-8,-200,0,200,100,100,100,0,0,100,30.37,30.03,0,-999,0,0.00
2013-12-9,33,15,30,100,66,25,88,39,81,30.29,30.10,7,-522,9,0.01
2013-12-10,36,1,35,100,98,25,70,2,66,30.42,30.21,7,-974,7,0.01
2013-12-11,44,16,25,100,70,19,90,30,57,30.61,30.40,14,-575,16,0.12
2013-12-12,37,14,16,100,50,8,88,42,36,30.64,30.41,8,-406,9,0.00
2013-12-13,45,32,18,34,24,15,91,75,40,30.41,29.97,6,0,7,0.11
2013-12-14,45,39,34,43,37,32,96,92,87,30.07,29.80,13,2,13,0.52
2013-12-15,35,33,31,32,28,27,92,85,78,30.25,30.07,13,2,14,0.00
2013-12-16,55,33,30,100,45,27,91,64,52,30.20,30.06,13,-174,13,0.00
2013-12-17,52,39,27,100,35,25,94,73,47,30.31,30.10,13,-34,13,0.00
2013-12-18,53,29,22,100,38,18,93,57,27,30.38,30.14,9,-178,9,0.00
2013-12-19,60,37,45,100,57,30,74,47,57,30.17,29.97,17,-274,17,0.00
2013-12-20,63,39,57,100,70,48,88,52,68,29.98,29.84,14,-349,15,0.01
2013-12-21,-200,0,200,100,100,100,0,0,100,29.86,0.00,0,-999,0,0.00
2013-12-22,-200,0,200,100,100,100,0,0,100,0.00,0.00,0,-999,0,0.00
2013-12-23,-200,0,200,100,100,100,0,0,100,0.00,0.00,0,-999,0,0.00
2013-12-24,-200,0,200,100,100,100,0,0,100,0.00,0.00,0,-999,0,0.00
2013-12-25,-200,0,200,100,100,100,0,0,100,0.00,0.00,0,-999,0,0.00
2013-12-26,-200,0,200,100,100,100,0,0,100,0.00,0.00,0,-999,0,0.00
2013-12-27,-200,0,200,100,100,100,0,0,100,0.00,0.00,0,-999,0,0.00
2013-12-28,-200,0,200,100,100,100,0,0,100,0.00,0.00,0,-999,0,0.00
2013-12-29,-200,0,200,100,100,100,0,0,100,0.00,0.00,0,-999,0,0.00
2013-12-30,-200,0,200,100,100,100,0,0,100,30.31,0.00,0,-999,0,0.00
2013-12-31,44,11,21,100,75,19,91,24,48,30.48,30.29,5,-658,5,0.00
2014-1-1,50,10,25,100,81,23,93,20,42,30.33,29.96,6,-723,255,0.01
2014-1-2,43,30,18,100,26,12,95,82,71,30.45,29.88,21,-7,23,0.07